Time;durP1;ratioP1;P1;durP2;ratioP2;P2;SDS_P1;SDS_P2;PMS_P1;PMS_P2;Temp;Humidity;BMP_temperature;BMP_pressure;BME280_temperature;BME280_humidity;BME280_pressure;Samples;Min_cycle;Max_cycle;Signal;HPM_P1;HPM_P2
2022/07/10 00:01:05;;;;;;;3.02;1.90;;;;;;;16.97;100.00;98326.94;1699098;82;28107;-86
2022/07/10 00:03:31;;;;;;;1.92;1.30;;;;;;;16.97;100.00;98323.81;1691920;83;28196;-87
2022/07/10 00:05:57;;;;;;;2.00;1.60;;;;;;;16.95;100.00;98318.34;1697730;82;28087;-86
2022/07/10 00:08:30;;;;;;;2.15;1.72;;;;;;;16.91;100.00;98325.72;1697064;82;28014;-87
2022/07/10 00:10:56;;;;;;;2.55;1.57;;;;;;;16.89;100.00;98320.27;1695512;82;28076;-86
2022/07/10 00:13:22;;;;;;;2.00;1.60;;;;;;;16.90;100.00;98320.12;1697175;83;28064;-86
2022/07/10 00:15:54;;;;;;;4.15;1.70;;;;;;;16.91;100.00;98320.96;1695920;83;28131;-85
2022/07/10 00:18:23;;;;;;;3.35;1.60;;;;;;;16.88;100.00;98316.78;1694198;83;28081;-87
2022/07/10 00:20:49;;;;;;;3.35;1.50;;;;;;;16.88;100.00;98307.53;1691852;82;28099;-85
2022/07/10 00:23:15;;;;;;;3.17;1.42;;;;;;;16.91;100.00;98307.22;1698017;83;28490;-85
2022/07/10 00:25:41;;;;;;;3.17;1.50;;;;;;;16.95;100.00;98303.81;1658240;84;42558;-85
2022/07/10 00:28:07;;;;;;;2.62;1.52;;;;;;;16.99;100.00;98306.48;1693781;83;28194;-85
2022/07/10 00:30:36;;;;;;;3.12;1.90;;;;;;;16.99;100.00;98302.52;1691563;83;28077;-85
2022/07/10 00:33:04;;;;;;;3.77;1.45;;;;;;;16.98;100.00;98296.39;1686422;83;28063;-84
2022/07/10 00:35:36;;;;;;;3.83;1.90;;;;;;;16.96;100.00;98293.09;1691551;83;28143;-87
2022/07/10 00:38:02;;;;;;;2.20;1.47;;;;;;;16.97;100.00;98298.69;1693699;83;28107;-86
2022/07/10 00:40:33;;;;;;;2.22;1.60;;;;;;;16.94;100.00;98285.80;1686398;83;42502;-86
2022/07/10 00:42:59;;;;;;;2.08;1.32;;;;;;;16.95;100.00;98288.78;1693197;83;28079;-86
2022/07/10 00:45:27;;;;;;;1.95;1.52;;;;;;;16.96;100.00;98293.09;1684140;83;28117;-86
2022/07/10 00:47:53;;;;;;;2.92;1.62;;;;;;;16.96;100.00;98287.80;1698319;83;28020;-87
2022/07/10 00:50:19;;;;;;;4.40;1.77;;;;;;;16.97;100.00;98280.19;1689704;83;28154;-87
2022/07/10 00:52:48;;;;;;;5.67;1.77;;;;;;;16.98;100.00;98275.73;1688901;83;28091;-87
2022/07/10 00:55:14;;;;;;;2.60;1.60;;;;;;;16.97;100.00;98277.55;1691651;83;28110;-87
2022/07/10 00:57:45;;;;;;;4.35;2.10;;;;;;;16.98;100.00;98279.70;1695000;83;28148;-87
2022/07/10 01:00:11;;;;;;;3.00;1.40;;;;;;;16.97;100.00;98271.42;1686729;81;28095;-87
2022/07/10 01:02:41;;;;;;;2.35;1.70;;;;;;;16.97;100.00;98275.39;1690375;83;28087;-86
2022/07/10 01:05:08;;;;;;;2.77;1.52;;;;;;;16.94;100.00;98266.45;1692348;82;28060;-86
2022/07/10 01:07:34;;;;;;;2.15;1.60;;;;;;;16.93;100.00;98264.30;1690648;83;28101;-86
2022/07/10 01:10:07;;;;;;;2.75;1.57;;;;;;;16.93;100.00;98264.78;1698741;83;28083;-86
2022/07/10 01:12:33;;;;;;;1.75;1.32;;;;;;;16.92;100.00;98259.98;1696456;83;28214;-87
2022/07/10 01:15:03;;;;;;;1.62;1.37;;;;;;;16.92;100.00;98259.98;1693890;83;28085;-86
2022/07/10 01:17:32;;;;;;;2.17;1.32;;;;;;;16.94;100.00;98260.67;1684468;83;28079;-87
2022/07/10 01:20:09;;;;;;;2.35;1.50;;;;;;;16.96;100.00;98261.37;1693697;83;28137;-87
2022/07/10 01:22:39;;;;;;;3.17;1.60;;;;;;;16.98;100.00;98262.52;1686328;83;28086;-86
2022/07/10 01:25:06;;;;;;;2.45;1.52;;;;;;;16.96;100.00;98257.41;1688126;83;28196;-86
2022/07/10 01:27:38;;;;;;;2.20;1.40;;;;;;;16.93;100.00;98260.33;1662962;84;28109;-86
2022/07/10 01:30:14;;;;;;;4.58;1.40;;;;;;;16.93;100.00;98263.46;1687587;83;28090;-87
2022/07/10 01:32:47;;;;;;;2.42;1.42;;;;;;;16.92;100.00;98260.47;1695951;83;28103;-87
2022/07/10 01:35:14;;;;;;;2.12;1.70;;;;;;;16.93;100.00;98254.20;1696453;82;28161;-87
2022/07/10 01:37:42;;;;;;;2.27;1.40;;;;;;;16.88;100.00;98254.67;1696446;82;28103;-87
2022/07/10 01:40:08;;;;;;;2.52;1.67;;;;;;;16.86;100.00;98255.78;1690274;81;28094;-87
2022/07/10 01:42:39;;;;;;;2.17;1.55;;;;;;;16.82;100.00;98248.66;1666675;84;28106;-87
2022/07/10 01:45:09;;;;;;;3.92;1.60;;;;;;;16.79;100.00;98248.14;1695557;83;28090;-86
2022/07/10 01:47:46;;;;;;;2.50;1.57;;;;;;;16.74;100.00;98245.95;1699628;83;28097;-86
2022/07/10 01:50:12;;;;;;;3.67;1.62;;;;;;;16.75;100.00;98244.95;1694061;82;28161;-87
2022/07/10 01:52:41;;;;;;;2.25;1.82;;;;;;;16.73;100.00;98240.33;1692628;83;28098;-86
2022/07/10 01:55:08;;;;;;;2.37;1.67;;;;;;;16.72;100.00;98239.48;1702567;82;28168;-87
2022/07/10 01:57:34;;;;;;;1.82;1.35;;;;;;;16.73;100.00;98245.61;1686751;82;28085;-87
2022/07/10 02:00:09;;;;;;;2.25;1.80;;;;;;;16.71;100.00;98241.78;1699317;83;28085;-87
2022/07/10 02:02:32;;;;;;;2.62;1.82;;;;;;;16.69;100.00;98243.73;1688186;82;28114;-86
2022/07/10 02:05:05;;;;;;;3.17;1.62;;;;;;;16.69;100.00;98241.09;1691833;83;28103;-86
2022/07/10 02:07:31;;;;;;;2.92;1.70;;;;;;;16.68;100.00;98239.95;1693692;83;28098;-86
2022/07/10 02:09:57;;;;;;;3.72;1.55;;;;;;;16.65;100.00;98237.58;1696149;82;28009;-87
2022/07/10 02:12:24;;;;;;;3.02;1.95;;;;;;;16.60;100.00;98235.39;1691801;82;28086;-86
2022/07/10 02:14:52;;;;;;;4.15;1.77;;;;;;;16.57;100.00;98230.39;1691161;83;28115;-86
2022/07/10 02:17:20;;;;;;;2.42;1.75;;;;;;;16.53;100.00;98223.72;1699248;83;28130;-86
2022/07/10 02:19:51;;;;;;;3.37;1.77;;;;;;;16.52;100.00;98228.69;1693164;83;28097;-86
2022/07/10 02:22:23;;;;;;;2.72;1.50;;;;;;;16.51;100.00;98224.38;1692949;83;28091;-87
2022/07/10 02:24:53;;;;;;;2.42;1.55;;;;;;;16.50;100.00;98220.07;1695411;82;28117;-86
2022/07/10 02:27:22;;;;;;;2.67;1.72;;;;;;;16.47;100.00;98222.19;1697568;81;28142;-87
2022/07/10 02:29:48;;;;;;;2.70;1.50;;;;;;;16.46;100.00;98224.48;1696819;82;28133;-87
2022/07/10 02:32:15;;;;;;;2.25;1.77;;;;;;;16.42;100.00;98219.97;1692129;83;28099;-85
2022/07/10 02:34:47;;;;;;;4.08;1.80;;;;;;;16.41;100.00;98220.98;1691694;83;28464;-86
2022/07/10 02:37:13;;;;;;;2.70;1.75;;;;;;;16.40;100.00;98221.12;1697073;82;28119;-86
2022/07/10 02:39:40;;;;;;;2.10;1.60;;;;;;;16.40;100.00;98222.44;1692579;83;28103;-86
2022/07/10 02:42:06;;;;;;;4.37;1.80;;;;;;;16.39;100.00;98226.05;1688466;83;28099;-86
2022/07/10 02:44:34;;;;;;;4.80;2.08;;;;;;;16.36;100.00;98222.41;1694409;82;28059;-86
2022/07/10 02:47:02;;;;;;;2.92;1.80;;;;;;;16.35;100.00;98228.17;1699005;82;28106;-86
2022/07/10 02:49:29;;;;;;;4.08;1.70;;;;;;;16.32;100.00;98219.20;1692619;83;28083;-86
2022/07/10 02:52:01;;;;;;;1.95;1.60;;;;;;;16.32;100.00;98221.36;1691148;83;28063;-86
2022/07/10 02:54:27;;;;;;;3.83;1.90;;;;;;;16.35;100.00;98224.20;1691751;82;28026;-86
2022/07/10 02:56:54;;;;;;;2.35;1.55;;;;;;;16.35;100.00;98220.25;1693368;82;28098;-86
2022/07/10 02:59:23;;;;;;;2.92;2.00;;;;;;;16.31;100.00;98219.69;1699783;82;28080;-86
2022/07/10 03:01:54;;;;;;;4.10;1.85;;;;;;;16.33;100.00;98219.06;1697245;83;28169;-86
2022/07/10 03:04:26;;;;;;;4.22;1.60;;;;;;;16.36;100.00;98215.80;1681480;82;28068;-86
2022/07/10 03:06:55;;;;;;;3.12;1.82;;;;;;;16.39;100.00;98211.52;1692840;83;28097;-85
2022/07/10 03:09:27;;;;;;;4.62;2.15;;;;;;;16.39;100.00;98219.45;1699781;82;28070;-85
2022/07/10 03:12:03;;;;;;;4.20;1.85;;;;;;;16.40;100.00;98219.80;1691996;83;28019;-85
2022/07/10 03:14:29;;;;;;;2.67;1.98;;;;;;;16.42;100.00;98223.13;1692667;83;28075;-85
2022/07/10 03:16:57;;;;;;;2.10;1.90;;;;;;;16.42;100.00;98217.85;1691212;83;28480;-85
2022/07/10 03:19:23;;;;;;;3.70;1.80;;;;;;;16.43;100.00;98215.52;1692571;83;28040;-85
2022/07/10 03:21:51;;;;;;;1.92;1.57;;;;;;;16.44;100.00;98216.70;1696965;83;28175;-85
2022/07/10 03:24:24;;;;;;;2.85;2.00;;;;;;;16.45;100.00;98219.69;1690717;82;28064;-85
2022/07/10 03:26:50;;;;;;;6.60;1.87;;;;;;;16.48;100.00;98217.23;1697136;83;28093;-85
2022/07/10 03:29:17;;;;;;;2.80;1.60;;;;;;;16.49;100.00;98212.28;1682796;84;28062;-85
2022/07/10 03:31:43;;;;;;;6.95;1.77;;;;;;;16.48;100.00;98214.58;1693520;83;28131;-85
2022/07/10 03:34:10;;;;;;;2.80;1.62;;;;;;;16.48;100.00;98208.81;1660307;83;28110;-85
2022/07/10 03:36:39;;;;;;;3.67;1.50;;;;;;;16.47;100.00;98208.98;1697418;82;28042;-85
2022/07/10 03:39:05;;;;;;;2.87;1.80;;;;;;;16.44;100.00;98211.91;1689575;83;28202;-85
2022/07/10 03:41:31;;;;;;;4.15;1.60;;;;;;;16.45;100.00;98206.97;1658023;85;28082;-85
2022/07/10 03:44:05;;;;;;;3.25;2.08;;;;;;;16.46;100.00;98209.96;1692486;83;28018;-85
2022/07/10 03:46:33;;;;;;;5.50;2.05;;;;;;;16.45;100.00;98197.73;1693608;83;28085;-85
2022/07/10 03:48:59;;;;;;;3.37;1.90;;;;;;;16.42;100.00;98201.48;1655822;85;28145;-86
2022/07/10 03:51:26;;;;;;;3.98;2.00;;;;;;;16.42;100.00;98198.84;1655332;84;28054;-85
2022/07/10 03:53:52;;;;;;;5.08;1.90;;;;;;;16.41;100.00;98201.66;1693629;82;28058;-85
2022/07/10 03:59:04;;;;;;;3.40;1.52;;;;;;;16.39;100.00;98197.83;1654031;84;28099;-85
2022/07/10 04:01:31;;;;;;;5.90;2.33;;;;;;;16.41;100.00;98199.84;1637327;86;28063;-85
2022/07/10 04:04:16;;;;;;;5.03;2.12;;;;;;;16.42;100.00;98200.16;1692207;82;28068;-85
2022/07/10 04:06:42;;;;;;;5.12;2.12;;;;;;;16.42;100.00;98200.68;1698349;83;28077;-85
2022/07/10 04:09:15;;;;;;;3.92;1.77;;;;;;;16.40;100.00;98199.50;1694456;83;28073;-85
2022/07/10 04:11:41;;;;;;;3.00;1.77;;;;;;;16.41;100.00;98201.17;1671419;84;28168;-85
2022/07/10 04:14:07;;;;;;;3.33;2.12;;;;;;;16.38;100.00;98192.69;1698513;83;43313;-86
2022/07/10 04:16:40;;;;;;;3.12;2.17;;;;;;;16.36;100.00;98202.59;1655286;84;28070;-86
2022/07/10 04:19:12;;;;;;;3.90;2.12;;;;;;;16.35;100.00;98189.88;1656835;84;28068;-86
2022/07/10 04:21:38;;;;;;;4.05;2.60;;;;;;;16.33;100.00;98190.02;1657991;84;28163;-85
2022/07/10 04:24:05;;;;;;;3.52;1.98;;;;;;;16.32;100.00;98193.63;1655568;84;27997;-85
2022/07/10 04:26:36;;;;;;;3.55;2.10;;;;;;;16.32;100.00;98200.23;1660796;84;28207;-85
2022/07/10 04:29:02;;;;;;;3.27;1.87;;;;;;;16.29;100.00;98197.06;1660559;84;28074;-85
2022/07/10 04:31:28;;;;;;;2.67;1.80;;;;;;;16.25;100.00;98196.55;1657230;85;28101;-85
2022/07/10 04:33:57;;;;;;;2.70;1.67;;;;;;;16.29;100.00;98193.94;1640351;85;28171;-85
2022/07/10 04:36:26;;;;;;;2.52;1.67;;;;;;;16.30;100.00;98192.97;1666483;84;28100;-85
2022/07/10 04:38:54;;;;;;;5.62;1.65;;;;;;;16.31;100.00;98191.97;1654959;84;28071;-85
2022/07/10 04:41:20;;;;;;;5.30;1.92;;;;;;;16.31;100.00;98191.97;1657114;84;28076;-85
2022/07/10 04:43:46;;;;;;;5.17;1.67;;;;;;;16.38;100.00;98194.84;1657645;84;28147;-86
2022/07/10 04:46:13;;;;;;;2.45;2.05;;;;;;;16.40;100.00;98196.86;1695156;82;28099;-86
2022/07/10 04:48:39;;;;;;;3.80;1.87;;;;;;;16.42;100.00;98196.72;1699808;82;28112;-85
2022/07/10 04:51:05;;;;;;;5.17;1.90;;;;;;;16.48;100.00;98197.41;1693746;82;28071;-85
2022/07/10 04:53:40;;;;;;;2.67;1.72;;;;;;;16.46;100.00;98194.11;1698762;82;28090;-85
2022/07/10 04:56:06;;;;;;;3.25;1.45;;;;;;;16.41;100.00;98193.24;1695981;82;28039;-85
2022/07/10 04:58:32;;;;;;;3.25;1.57;;;;;;;16.31;100.00;98193.28;1698019;82;28169;-86
2022/07/10 05:01:07;;;;;;;4.37;1.80;;;;;;;16.29;100.00;98195.27;1656506;84;42746;-85
2022/07/10 05:03:43;;;;;;;3.67;1.42;;;;;;;16.31;100.00;98198.56;1660564;85;28546;-85
2022/07/10 05:06:15;;;;;;;1.70;1.50;;;;;;;16.22;100.00;98204.75;1656923;85;28155;-85
2022/07/10 05:08:42;;;;;;;3.92;1.60;;;;;;;16.14;100.00;98209.95;1654209;84;28116;-84
2022/07/10 05:11:08;;;;;;;2.10;1.10;;;;;;;16.11;100.00;98208.08;1632531;86;28006;-84
2022/07/10 05:13:45;;;;;;;2.98;1.50;;;;;;;16.09;100.00;98206.09;1641429;86;28266;-87
2022/07/10 05:16:25;;;;;;;2.30;1.12;;;;;;;16.04;100.00;98210.47;1669933;84;28144;-85
2022/07/10 05:18:51;;;;;;;1.40;1.17;;;;;;;16.03;100.00;98210.63;1677685;84;28120;-85
2022/07/10 05:21:19;;;;;;;1.02;0.90;;;;;;;16.00;100.00;98217.02;1669461;84;43715;-85
2022/07/10 05:23:48;;;;;;;1.27;1.07;;;;;;;15.93;100.00;98216.45;1697727;82;28016;-85
2022/07/10 05:26:14;;;;;;;3.45;1.30;;;;;;;15.95;100.00;98212.67;1697000;82;28160;-85
2022/07/10 05:28:42;;;;;;;0.98;0.95;;;;;;;16.05;100.00;98219.22;1665417;83;28495;-85
2022/07/10 05:31:08;;;;;;;1.45;1.10;;;;;;;16.15;100.00;98220.83;1667384;83;28106;-85
2022/07/10 05:33:34;;;;;;;1.30;1.00;;;;;;;16.24;100.00;98221.77;1667318;85;28028;-85
2022/07/10 05:36:10;;;;;;;0.93;0.80;;;;;;;16.28;100.00;98218.68;1663616;83;28103;-85
2022/07/10 05:38:36;;;;;;;1.37;0.78;;;;;;;16.30;100.00;98220.70;1664993;83;28190;-85
2022/07/10 05:41:03;;;;;;;2.47;1.20;;;;;;;16.37;100.00;98225.36;1665323;84;42215;-85
2022/07/10 05:43:32;;;;;;;1.30;0.80;;;;;;;16.42;100.00;98222.61;1672588;83;28099;-85
2022/07/10 05:45:59;;;;;;;3.90;0.90;;;;;;;16.45;100.00;98228.10;1672216;83;28105;-86
2022/07/10 05:48:27;;;;;;;1.27;0.80;;;;;;;16.52;100.00;98218.61;1668426;84;28022;-85
2022/07/10 05:50:54;;;;;;;2.27;0.90;;;;;;;16.55;100.00;98215.66;1660622;84;28083;-84
2022/07/10 05:53:26;;;;;;;1.65;0.85;;;;;;;16.62;100.00;98222.05;1674547;84;28137;-85
2022/07/10 05:55:52;;;;;;;1.25;0.80;;;;;;;16.73;100.00;98217.86;1666912;84;28121;-85
2022/07/10 05:58:18;;;;;;;1.27;1.05;;;;;;;16.81;100.00;98221.05;1668620;84;28118;-85
2022/07/10 06:00:45;;;;;;;1.30;0.95;;;;;;;16.85;100.00;98221.94;1677280;84;28187;-85
2022/07/10 06:03:18;;;;;;;0.80;0.80;;;;;;;16.90;100.00;98223.64;1661636;84;28062;-85
2022/07/10 06:05:44;;;;;;;3.75;1.07;;;;;;;16.93;100.00;98220.67;1665945;84;28015;-85
2022/07/10 06:08:11;;;;;;;2.45;0.80;;;;;;;16.93;100.00;98214.56;1662807;84;28078;-85
2022/07/10 06:10:39;;;;;;;0.78;0.75;;;;;;;16.94;100.00;98221.02;1667746;84;28109;-84
2022/07/10 06:13:12;;;;;;;2.00;0.88;;;;;;;16.91;100.00;98212.06;1661997;84;28093;-85
2022/07/10 06:15:39;;;;;;;1.72;1.10;;;;;;;17.06;100.00;98217.16;1666704;84;28042;-85
2022/07/10 06:18:05;;;;;;;0.78;0.75;;;;;;;17.27;100.00;98212.02;1665312;84;28176;-86
2022/07/10 06:20:34;;;;;;;2.70;0.75;;;;;;;17.42;100.00;98208.66;1667862;83;28066;-85
2022/07/10 06:23:02;;;;;;;2.25;0.78;;;;;;;17.45;100.00;98214.14;1667897;84;28078;-85
2022/07/10 06:25:28;;;;;;;1.37;0.70;;;;;;;17.45;100.00;98211.50;1670806;83;28093;-84
2022/07/10 06:27:57;;;;;;;1.77;0.80;;;;;;;17.40;100.00;98211.94;1671273;83;28070;-84
2022/07/10 06:30:30;;;;;;;2.33;1.20;;;;;;;17.42;100.00;98209.14;1666006;83;28164;-86
2022/07/10 06:32:59;;;;;;;0.93;0.80;;;;;;;17.46;100.00;98211.81;1677356;83;28165;-87
2022/07/10 06:35:41;;;;;;;2.33;0.95;;;;;;;17.48;100.00;98215.14;1669600;84;28093;-87
2022/07/10 06:38:07;;;;;;;1.45;1.27;;;;;;;17.48;100.00;98211.17;1676068;84;28158;-85
2022/07/10 06:40:42;;;;;;;2.02;0.98;;;;;;;17.40;100.00;98219.88;1675463;84;28070;-86
2022/07/10 06:43:08;;;;;;;1.07;0.93;;;;;;;17.33;100.00;98218.02;1654967;84;28042;-86
2022/07/10 06:45:35;;;;;;;1.90;1.10;;;;;;;17.23;100.00;98216.80;1669910;84;28124;-85
2022/07/10 06:48:01;;;;;;;1.00;0.80;;;;;;;17.13;100.00;98217.36;1668295;84;28102;-86
2022/07/10 06:50:30;;;;;;;1.75;0.93;;;;;;;17.04;100.00;98216.48;1677631;84;28075;-86
2022/07/10 06:53:02;;;;;;;2.60;1.10;;;;;;;16.96;100.00;98220.39;1666896;84;28188;-86
2022/07/10 06:55:28;;;;;;;2.98;1.05;;;;;;;16.93;100.00;98223.81;1692212;83;28072;-86
2022/07/10 06:57:57;;;;;;;4.03;0.88;;;;;;;16.88;100.00;98216.83;1651579;84;28109;-86
2022/07/10 07:00:28;;;;;;;2.40;0.90;;;;;;;16.85;100.00;98227.72;1659757;84;28096;-86
2022/07/10 07:03:01;;;;;;;1.02;0.93;;;;;;;16.80;100.00;98223.38;1657411;84;28100;-87
2022/07/10 07:05:30;;;;;;;1.42;0.95;;;;;;;16.79;100.00;98228.31;1657180;84;28503;-86
2022/07/10 07:07:56;;;;;;;3.95;1.15;;;;;;;16.76;100.00;98221.51;1658589;84;28157;-86
2022/07/10 07:10:24;;;;;;;1.20;1.10;;;;;;;16.78;100.00;98229.30;1655228;84;28151;-86
2022/07/10 07:12:50;;;;;;;2.12;1.30;;;;;;;16.83;100.00;98227.86;1666526;84;28129;-86
2022/07/10 07:15:16;;;;;;;1.92;1.02;;;;;;;16.83;100.00;98227.86;1660404;84;28068;-86
2022/07/10 07:17:56;;;;;;;4.35;1.67;;;;;;;16.81;100.00;98235.59;1656936;84;28117;-86
2022/07/10 07:23:10;;;;;;;2.08;1.20;;;;;;;16.90;100.00;98229.41;1653447;84;28085;-86
2022/07/10 07:25:40;;;;;;;2.35;1.20;;;;;;;17.08;100.00;98234.17;1669815;84;28145;-86
2022/07/10 07:28:06;;;;;;;3.70;1.20;;;;;;;17.18;100.00;98230.98;1660404;84;28034;-86
2022/07/10 07:30:34;;;;;;;3.33;1.00;;;;;;;17.21;100.00;98233.80;1655934;84;28174;-86
2022/07/10 07:33:01;;;;;;;2.58;1.05;;;;;;;17.23;100.00;98226.06;1642915;85;28091;-86
2022/07/10 07:35:27;;;;;;;1.55;0.93;;;;;;;17.34;100.00;98232.91;1610171;86;28171;-86
2022/07/10 07:38:03;;;;;;;3.15;1.12;;;;;;;17.40;100.00;98235.75;1611656;87;28148;-86
2022/07/10 07:40:29;;;;;;;5.05;1.25;;;;;;;17.48;100.00;98238.95;1637532;85;28109;-86
2022/07/10 07:43:00;;;;;;;2.72;1.40;;;;;;;17.52;100.00;98234.52;1638025;85;28172;-86
2022/07/10 07:45:35;;;;;;;3.17;0.95;;;;;;;17.56;100.00;98237.70;1632079;85;28493;-87
2022/07/10 07:48:02;;;;;;;1.67;0.80;;;;;;;17.61;100.00;98236.77;1679032;83;28171;-86
2022/07/10 07:50:31;;;;;;;2.30;0.85;;;;;;;17.71;100.00;98240.63;1683526;83;28067;-86
2022/07/10 07:52:59;;;;;;;3.52;0.60;;;;;;;17.74;100.00;98235.84;1618156;86;28080;-87
2022/07/10 07:55:26;;;;;;;3.40;0.80;;;;;;;17.69;100.00;98235.97;1653256;85;28022;-86
2022/07/10 07:57:54;;;;;;;1.65;0.68;;;;;;;17.63;100.00;98242.72;1609205;86;28200;-87
2022/07/10 08:00:28;;;;;;;2.17;0.75;;;;;;;17.53;100.00;98227.41;1642218;85;28079;-86
2022/07/10 08:02:57;;;;;;;1.10;0.68;;;;;;;17.64;100.00;98227.67;1679675;83;28040;-86
2022/07/10 08:05:30;;;;;;;2.50;0.78;;;;;;;17.78;100.00;98229.23;1666573;83;28158;-87
2022/07/10 08:08:04;;;;;;;1.85;0.90;;;;;;;17.77;100.00;98228.92;1681559;83;28184;-87
2022/07/10 08:10:35;;;;;;;3.40;0.95;;;;;;;17.77;100.00;98229.41;1680721;83;28078;-87
2022/07/10 08:13:03;;;;;;;2.12;1.00;;;;;;;17.89;100.00;98224.19;1635472;86;28111;-87
2022/07/10 08:15:30;;;;;;;3.58;1.00;;;;;;;18.03;100.00;98225.39;1615221;85;28138;-86
2022/07/10 08:18:00;;;;;;;2.00;0.80;;;;;;;18.13;100.00;98225.60;1610162;86;28079;-86
2022/07/10 08:20:36;;;;;;;0.85;0.45;;;;;;;18.16;100.00;98226.63;1677284;83;28106;-86
2022/07/10 08:23:02;;;;;;;1.90;0.80;;;;;;;18.28;100.00;98224.00;1638143;85;28096;-87
2022/07/10 08:25:32;;;;;;;2.12;0.80;;;;;;;18.44;100.00;98221.89;1639412;85;28094;-87
2022/07/10 08:28:09;;;;;;;1.67;0.80;;;;;;;18.50;100.00;98225.22;1626770;86;28152;-85
2022/07/10 08:30:41;;;;;;;2.58;0.70;;;;;;;18.62;100.00;98221.31;1680143;82;28074;-87
2022/07/10 08:33:07;;;;;;;;;;;;;;;18.76;100.00;98217.20;1691644;83;28118;-86
2022/07/10 08:35:35;;;;;;;2.92;0.72;;;;;;;18.79;100.00;98216.37;1684207;84;41891;-86
2022/07/10 08:38:12;;;;;;;4.20;0.90;;;;;;;18.73;100.00;98214.86;1682337;83;28156;-86
2022/07/10 08:40:39;;;;;;;1.77;0.60;;;;;;;18.75;100.00;98215.05;1677479;84;28075;-87
2022/07/10 08:43:11;;;;;;;2.35;0.93;;;;;;;18.85;100.00;98222.01;1681492;83;28077;-86
2022/07/10 08:45:40;;;;;;;4.85;0.93;;;;;;;18.96;100.00;98219.03;1677247;84;28106;-86
2022/07/10 08:48:14;;;;;;;0.80;0.60;;;;;;;19.06;100.00;98216.55;1675013;83;28120;-86
2022/07/10 08:50:53;;;;;;;2.67;0.80;;;;;;;19.14;100.00;98213.91;1675258;83;28136;-86
2022/07/10 08:53:32;;;;;;;1.80;0.90;;;;;;;19.26;100.00;98212.22;1685652;83;28136;-87
2022/07/10 08:56:01;;;;;;;3.25;1.00;;;;;;;19.34;100.00;98209.08;1685019;83;28037;-87
2022/07/10 08:58:27;;;;;;;2.83;0.80;;;;;;;19.39;100.00;98200.11;1681944;83;28079;-87
2022/07/10 09:00:54;;;;;;;2.15;0.82;;;;;;;19.40;100.00;98204.92;1676552;83;28075;-87
2022/07/10 09:03:20;;;;;;;1.27;0.62;;;;;;;19.59;100.00;98198.77;1679259;83;28119;-87
2022/07/10 09:05:51;;;;;;;1.37;0.70;;;;;;;19.76;100.00;98202.70;1642529;85;28192;-86
2022/07/10 09:08:32;;;;;;;2.05;0.95;;;;;;;19.85;100.00;98195.06;1639101;85;28097;-86
2022/07/10 09:11:18;;;;;;;1.55;0.68;;;;;;;19.92;100.00;98201.33;1678730;83;39368;-87
2022/07/10 09:13:51;;;;;;;1.65;0.62;;;;;;;19.87;100.00;98197.03;1618475;87;28022;-86
2022/07/10 09:16:30;;;;;;;1.98;0.70;;;;;;;19.83;100.00;98197.88;1641365;86;28196;-86
2022/07/10 09:18:57;;;;;;;3.15;0.82;;;;;;;19.68;100.00;98205.40;1681365;83;28117;-86
2022/07/10 09:21:24;;;;;;;2.22;0.75;;;;;;;19.44;100.00;98200.43;1638223;85;28162;-86
2022/07/10 09:23:51;;;;;;;2.02;0.50;;;;;;;19.48;100.00;98205.75;1685634;83;28113;-86
2022/07/10 09:26:18;;;;;;;2.47;0.70;;;;;;;19.54;100.00;98201.10;1686168;83;28167;-87
2022/07/10 09:28:44;;;;;;;2.10;0.80;;;;;;;19.80;100.00;98196.08;1691384;82;28097;-86
2022/07/10 09:31:10;;;;;;;1.42;0.70;;;;;;;19.94;100.00;98197.52;1695217;83;28069;-86
2022/07/10 09:33:37;;;;;;;0.90;0.55;;;;;;;19.93;100.00;98199.83;1699137;83;28099;-86
2022/07/10 09:36:13;;;;;;;2.35;0.70;;;;;;;19.87;100.00;98191.72;1655786;84;28480;-86
2022/07/10 09:38:47;;;;;;;3.22;0.70;;;;;;;19.77;100.00;98189.27;1645207;84;28113;-86
2022/07/10 09:41:21;;;;;;;4.67;0.60;;;;;;;19.70;100.00;98190.94;1643443;85;28117;-86
2022/07/10 09:43:56;;;;;;;1.12;0.47;;;;;;;19.79;100.00;98183.80;1692765;83;28025;-86
2022/07/10 09:46:25;;;;;;;3.05;0.62;;;;;;;19.97;100.00;98186.53;1704481;82;28194;-86
2022/07/10 09:49:12;;;;;;;2.77;0.68;;;;;;;20.01;100.00;98193.67;1691021;83;28083;-86
2022/07/10 09:51:40;;;;;;;1.62;0.70;;;;;;;19.86;98.89;98190.05;1699170;82;28075;-86
2022/07/10 09:54:07;;;;;;;;;;;;;;;19.72;97.58;98191.61;1699931;83;28131;-86
2022/07/10 09:56:34;;;;;;;;;;;;;;;19.75;97.04;98191.75;1699565;83;24807;-88
2022/07/10 09:59:04;;;;;;;;;;;;;;;19.82;96.79;98186.09;1699797;83;22715;-88
2022/07/10 10:01:30;;;;;;;;;;;;;;;19.91;96.40;98189.07;1693499;83;26164;-87
2022/07/10 10:04:00;;;;;;;;;;;;;;;19.78;95.70;98186.95;1698918;83;24549;-89
2022/07/10 10:06:27;;;;;;;;;;;;;;;19.76;94.91;98179.64;1696563;83;20224;-86
2022/07/10 10:08:58;;;;;;;;;;;;;;;19.80;94.37;98181.47;1695563;83;24759;-86
2022/07/10 10:11:26;;;;;;;;;;;;;;;19.94;93.92;98179.41;1705180;82;22051;-86
2022/07/10 10:13:53;;;;;;;;;;;;;;;20.08;93.65;98182.66;1699691;83;26747;-86
2022/07/10 10:16:19;;;;;;;;;;;;;;;19.90;92.60;98193.55;1701997;83;24768;-86
2022/07/10 10:21:30;;;;;;;;;;;;;;;19.51;91.02;98204.61;1704103;83;24926;-87
2022/07/10 10:23:56;;;;;;;;;;;;;;;19.28;90.09;98200.45;1701188;82;22045;-87
2022/07/10 10:26:24;;;;;;;;;;;;;;;19.07;89.28;98204.12;1710007;83;21027;-87
2022/07/10 10:28:52;;;;;;;;;;;;;;;18.93;88.66;98198.16;1697363;83;24445;-90
2022/07/10 10:31:18;;;;;;;;;;;;;;;18.86;88.46;98194.01;1683842;83;20226;-86
2022/07/10 10:33:46;;;;;;;;;;;;;;;18.94;88.44;98194.48;1655303;85;24835;-90
2022/07/10 10:36:17;;;;;;;2.75;0.90;;;;;;;19.08;88.60;98192.02;1686025;83;21942;-90
2022/07/10 10:38:58;;;;;;;2.70;0.62;;;;;;;19.08;88.40;98197.83;1687023;83;28075;-89
2022/07/10 10:41:32;;;;;;;2.30;0.90;;;;;;;19.14;88.36;98190.53;1679099;83;28115;-88
2022/07/10 10:44:13;;;;;;;2.10;0.70;;;;;;;18.98;87.59;98201.98;1669150;83;35263;-88
2022/07/10 10:47:01;;;;;;;3.47;1.02;;;;;;;18.90;87.20;98203.78;1675925;83;28082;-87
2022/07/10 10:49:26;;;;;;;2.15;0.80;;;;;;;18.95;86.71;98205.44;1680212;83;28043;-88
2022/07/10 10:52:06;;;;;;;3.17;1.07;;;;;;;18.97;86.28;98208.27;1675519;83;28113;-88
2022/07/10 10:54:52;;;;;;;1.30;0.50;;;;;;;18.88;85.66;98206.59;1672789;83;28065;-88
2022/07/10 10:57:18;;;;;;;3.62;0.72;;;;;;;18.80;85.29;98210.08;1639882;85;28007;-88
2022/07/10 10:59:54;;;;;;;2.72;0.60;;;;;;;18.73;84.89;98206.91;1614090;86;28254;-88
2022/07/10 11:02:25;;;;;;;1.62;0.53;;;;;;;18.70;84.45;98209.41;1675559;83;28174;-88
2022/07/10 11:04:54;;;;;;;2.67;0.55;;;;;;;18.73;84.17;98208.23;1640355;85;28066;-89
2022/07/10 11:08:01;;;;;;;1.57;0.68;;;;;;;18.73;83.76;98205.58;1617661;86;28107;-88
2022/07/10 11:10:36;;;;;;;3.30;0.50;;;;;;;18.73;83.64;98206.42;1617578;86;28180;-88
2022/07/10 11:13:03;;;;;;;;;;;;;;;18.75;83.55;98207.59;1658548;85;24745;-89
2022/07/10 11:15:30;;;;;;;;;;;;;;;18.79;83.52;98205.77;1679731;83;22200;-88
2022/07/10 11:17:57;;;;;;;2.72;0.90;;;;;;;18.70;83.26;98212.06;1684038;83;26134;-89
2022/07/10 11:20:24;;;;;;;1.90;0.60;;;;;;;18.71;83.23;98209.72;1676928;83;28159;-88
2022/07/10 11:22:54;;;;;;;3.50;0.60;;;;;;;18.86;83.40;98211.24;1682743;83;28098;-88
2022/07/10 11:25:28;;;;;;;2.55;0.50;;;;;;;18.93;83.46;98211.42;1662525;83;28223;-88
2022/07/10 11:28:06;;;;;;;5.08;0.98;;;;;;;18.98;83.39;98213.08;1685623;83;28056;-88
2022/07/10 11:30:52;;;;;;;1.35;0.53;;;;;;;19.02;83.12;98207.27;1674960;83;28132;-88
2022/07/10 11:33:23;;;;;;;5.58;0.70;;;;;;;18.96;82.74;98207.09;1669230;84;28091;-88
2022/07/10 11:35:52;;;;;;;3.10;0.53;;;;;;;19.09;82.78;98207.45;1680712;83;28171;-88
2022/07/10 11:38:23;;;;;;;0.90;0.40;;;;;;;19.11;82.37;98210.25;1682899;83;28112;-88
2022/07/10 11:40:50;;;;;;;1.45;0.57;;;;;;;19.15;81.85;98210.23;1677389;83;28017;-88
2022/07/10 11:43:22;;;;;;;1.75;0.40;;;;;;;19.18;81.38;98218.37;1672074;83;28176;-88
2022/07/10 11:45:47;;;;;;;1.70;0.60;;;;;;;19.12;80.78;98217.71;1683909;83;28081;-87
2022/07/10 11:48:23;;;;;;;1.57;0.40;;;;;;;19.06;79.92;98211.73;1672182;83;28069;-88
2022/07/10 11:50:51;;;;;;;1.27;0.60;;;;;;;18.94;78.83;98211.73;1666620;83;28113;-88